Time;durP1;ratioP1;P1;durP2;ratioP2;P2;SDS_P1;SDS_P2;PMS_P1;PMS_P2;Temp;Humidity;BMP_temperature;BMP_pressure;BME280_temperature;BME280_humidity;BME280_pressure;Samples;Min_cycle;Max_cycle;Signal;HPM_P1;HPM_P2
2021/04/12 00:02:29;;;;;;;19.05;6.85;;;13.30;99.90;;;;;;5022372;28;21811;-77
2021/04/12 00:05:20;;;;;;;16.65;6.55;;;13.50;99.90;;;;;;5010239;28;20483;-76
2021/04/12 00:08:24;;;;;;;26.23;7.85;;;13.50;99.90;;;;;;5014462;28;20069;-77
2021/04/12 00:10:50;;;;;;;18.88;6.95;;;13.50;99.90;;;;;;5017786;28;20029;-77
2021/04/12 00:13:28;;;;;;;21.27;7.13;;;13.40;99.90;;;;;;5013240;28;20084;-77
2021/04/12 00:15:57;;;;;;;19.75;6.68;;;13.40;99.90;;;;;;5015916;28;20030;-77
2021/04/12 00:18:32;;;;;;;18.63;7.13;;;13.40;99.90;;;;;;5008115;28;20072;-77
2021/04/12 00:21:18;;;;;;;15.13;7.18;;;13.40;99.90;;;;;;5017085;28;20052;-76
2021/04/12 00:24:02;;;;;;;22.77;6.93;;;13.40;99.90;;;;;;5012966;28;20097;-76
2021/04/12 00:26:49;;;;;;;18.77;7.95;;;13.40;99.90;;;;;;5010140;28;20088;-77
2021/04/12 00:29:51;;;;;;;17.35;7.18;;;13.40;99.90;;;;;;5018110;28;21048;-77
2021/04/12 00:32:28;;;;;;;17.57;8.10;;;13.40;99.90;;;;;;5018261;28;20133;-78
2021/04/12 00:35:16;;;;;;;18.23;6.80;;;13.40;99.90;;;;;;5003296;28;20288;-76
2021/04/12 00:37:42;;;;;;;22.73;7.72;;;13.40;99.90;;;;;;5003882;28;20634;-75
2021/04/12 00:40:13;;;;;;;15.45;7.18;;;13.30;99.90;;;;;;5022223;28;20086;-76
2021/04/12 00:43:07;;;;;;;21.52;7.72;;;13.30;99.90;;;;;;5025201;28;20104;-77
2021/04/12 00:45:32;;;;;;;21.98;8.32;;;13.30;99.90;;;;;;5007919;28;20037;-76
2021/04/12 00:48:31;;;;;;;20.90;7.45;;;13.30;99.90;;;;;;5012434;28;20077;-77
2021/04/12 00:51:11;;;;;;;17.98;6.50;;;13.30;99.90;;;;;;5016492;28;20032;-77
2021/04/12 00:53:46;;;;;;;15.57;6.97;;;13.30;99.90;;;;;;5014535;28;20491;-78
2021/04/12 00:56:20;;;;;;;21.08;7.10;;;13.30;99.90;;;;;;5019352;28;20415;-76
2021/04/12 00:58:56;;;;;;;19.75;6.35;;;13.30;99.90;;;;;;5010925;28;20026;-77
2021/04/12 01:01:43;;;;;;;11.75;6.07;;;13.30;99.90;;;;;;5012072;28;20219;-78
2021/04/12 01:04:40;;;;;;;13.05;5.13;;;13.20;99.90;;;;;;4999657;28;20038;-78
2021/04/12 01:07:22;;;;;;;17.40;4.90;;;13.20;99.90;;;;;;5011307;28;20392;-78
2021/04/12 01:10:15;;;;;;;10.82;6.47;;;13.30;99.90;;;;;;5011080;28;20360;-78
2021/04/12 01:13:10;;;;;;;14.57;6.18;;;13.30;99.90;;;;;;5016444;28;20150;-77
2021/04/12 01:16:04;;;;;;;12.65;6.05;;;13.20;99.90;;;;;;5019914;28;20061;-77
2021/04/12 01:18:44;;;;;;;17.60;6.05;;;13.20;99.90;;;;;;5022619;28;20089;-78
2021/04/12 01:21:31;;;;;;;13.60;6.43;;;13.20;99.90;;;;;;5017218;28;20025;-77
2021/04/12 01:23:56;;;;;;;9.60;6.93;;;13.20;99.90;;;;;;5019966;28;20387;-78
2021/04/12 01:26:57;;;;;;;15.40;6.80;;;13.20;99.90;;;;;;5023155;28;20025;-77
2021/04/12 01:29:48;;;;;;;24.80;7.78;;;13.10;99.90;;;;;;5016253;28;20490;-77
2021/04/12 01:32:32;;;;;;;15.68;6.68;;;13.00;99.90;;;;;;4994259;28;20018;-77
2021/04/12 01:35:28;;;;;;;13.95;6.57;;;12.90;99.90;;;;;;5017620;28;20076;-78
2021/04/12 01:38:26;;;;;;;11.77;6.40;;;12.90;99.90;;;;;;5005928;28;20491;-77
2021/04/12 01:41:19;;;;;;;16.38;6.60;;;12.90;99.90;;;;;;5020924;28;20038;-78
2021/04/12 01:43:56;;;;;;;14.63;6.03;;;12.90;99.90;;;;;;5020801;28;20021;-78
2021/04/12 01:46:39;;;;;;;17.45;7.32;;;12.80;99.90;;;;;;5024024;28;20025;-78
2021/04/12 01:49:43;;;;;;;18.13;6.88;;;12.80;99.90;;;;;;5019693;28;20022;-78
2021/04/12 01:52:20;;;;;;;24.20;7.53;;;12.80;99.90;;;;;;4988284;28;20037;-77
2021/04/12 01:55:03;;;;;;;11.30;6.40;;;12.90;99.90;;;;;;5017238;28;20029;-78
2021/04/12 01:57:54;;;;;;;27.58;8.60;;;12.90;99.90;;;;;;5019566;28;20036;-78
2021/04/12 02:00:35;;;;;;;21.80;7.15;;;12.80;99.90;;;;;;5032516;28;20036;-78
2021/04/12 02:03:25;;;;;;;19.02;7.28;;;12.80;99.90;;;;;;5030317;28;20657;-78
2021/04/12 02:06:13;;;;;;;19.70;7.57;;;12.90;99.90;;;;;;5019623;28;20037;-78
2021/04/12 02:09:17;;;;;;;14.90;6.88;;;12.90;99.90;;;;;;5019061;28;20025;-78
2021/04/12 02:11:51;;;;;;;28.23;10.10;;;12.90;99.90;;;;;;5000914;28;20076;-78
2021/04/12 02:14:43;;;;;;;29.02;8.95;;;12.90;99.90;;;;;;5011578;28;20056;-78
2021/04/12 02:17:37;;;;;;;13.55;7.35;;;12.90;99.90;;;;;;5014214;28;20057;-79
2021/04/12 02:20:21;;;;;;;23.02;8.55;;;12.90;99.90;;;;;;5015564;28;20038;-77
2021/04/12 02:23:01;;;;;;;21.92;7.30;;;12.90;99.90;;;;;;5018551;28;20506;-77
2021/04/12 02:25:47;;;;;;;24.67;8.18;;;12.90;99.90;;;;;;5010723;28;20494;-78
2021/04/12 02:28:40;;;;;;;17.63;6.72;;;12.90;99.90;;;;;;5010411;28;20483;-77
2021/04/12 02:31:38;;;;;;;20.80;8.27;;;13.00;99.90;;;;;;5013222;28;20030;-78
2021/04/12 02:34:22;;;;;;;15.88;6.85;;;13.00;99.90;;;;;;4985777;28;20042;-78
2021/04/12 02:37:09;;;;;;;25.98;7.00;;;13.00;99.90;;;;;;5010574;28;20083;-77
2021/04/12 02:39:45;;;;;;;22.42;7.15;;;13.00;99.90;;;;;;5007275;28;20513;-77
2021/04/12 02:42:42;;;;;;;14.32;5.82;;;13.00;99.90;;;;;;5015100;28;20022;-77
2021/04/12 02:45:25;;;;;;;22.23;7.60;;;13.00;99.90;;;;;;5015492;28;20037;-78
2021/04/12 02:48:25;;;;;;;24.30;7.63;;;12.90;99.90;;;;;;5007524;28;20025;-78
2021/04/12 02:51:02;;;;;;;17.27;6.38;;;12.90;99.90;;;;;;5018279;28;20077;-78
2021/04/12 02:53:49;;;;;;;19.45;6.95;;;13.00;99.90;;;;;;5004360;28;20049;-78
2021/04/12 02:56:36;;;;;;;35.90;8.25;;;12.90;99.90;;;;;;5010792;28;20029;-78
2021/04/12 02:59:23;;;;;;;22.52;6.05;;;12.90;99.90;;;;;;5013941;28;20071;-78
2021/04/12 03:02:20;;;;;;;13.45;7.45;;;12.90;99.90;;;;;;5017830;28;20029;-77
2021/04/12 03:05:26;;;;;;;19.50;6.32;;;13.00;99.90;;;;;;5006401;28;20056;-78
2021/04/12 03:08:24;;;;;;;22.38;6.95;;;13.00;99.90;;;;;;5010267;28;20551;-78
2021/04/12 03:11:02;;;;;;;20.85;6.10;;;13.00;99.90;;;;;;5003179;28;20124;-77
2021/04/12 03:13:46;;;;;;;24.50;7.57;;;13.00;99.90;;;;;;5019876;28;20022;-78
2021/04/12 03:16:32;;;;;;;19.33;7.00;;;13.00;99.90;;;;;;5019932;28;20062;-78
2021/04/12 03:19:04;;;;;;;19.77;6.57;;;13.10;99.90;;;;;;5015554;28;20037;-78
2021/04/12 03:21:49;;;;;;;20.05;5.85;;;13.00;99.90;;;;;;5020520;28;20522;-78
2021/04/12 03:24:47;;;;;;;16.58;5.75;;;13.10;99.90;;;;;;5025443;28;20483;-78
2021/04/12 03:27:50;;;;;;;21.27;7.32;;;13.10;99.90;;;;;;5010215;28;20116;-77
2021/04/12 03:31:06;;;;;;;16.38;6.07;;;13.10;99.90;;;;;;5013847;28;20026;-77
2021/04/12 03:33:44;;;;;;;22.65;6.00;;;13.10;99.90;;;;;;4937255;29;20047;-78
2021/04/12 03:36:29;;;;;;;9.95;4.78;;;13.10;99.90;;;;;;4941234;29;20118;-77
2021/04/12 03:39:07;;;;;;;15.07;5.18;;;13.10;99.90;;;;;;5008546;28;20034;-78
2021/04/12 03:41:54;;;;;;;17.45;6.07;;;13.10;99.90;;;;;;5015583;28;20030;-77
2021/04/12 03:44:46;;;;;;;15.45;5.13;;;13.10;99.90;;;;;;5027742;28;20025;-78
2021/04/12 03:47:15;;;;;;;20.55;5.50;;;13.10;99.90;;;;;;4996227;28;20478;-78
2021/04/12 03:49:59;;;;;;;17.77;7.53;;;13.10;99.90;;;;;;5019232;28;20029;-78
2021/04/12 03:52:59;;;;;;;10.07;5.65;;;13.20;99.90;;;;;;5021521;28;20072;-77
2021/04/12 03:55:53;;;;;;;22.30;6.45;;;13.10;99.90;;;;;;5008890;28;20021;-78
2021/04/12 03:58:39;;;;;;;13.18;4.55;;;13.10;99.90;;;;;;5019405;28;20090;-78
2021/04/12 04:01:24;;;;;;;14.80;4.50;;;13.10;99.90;;;;;;5007723;28;20057;-78
2021/04/12 04:04:27;;;;;;;7.45;4.25;;;13.00;99.90;;;;;;5020465;28;20045;-78
2021/04/12 04:07:23;;;;;;;13.07;4.60;;;13.00;99.90;;;;;;5025960;28;20446;-78
2021/04/12 04:10:16;;;;;;;16.23;5.18;;;13.00;99.90;;;;;;5000624;28;20068;-78
2021/04/12 04:13:01;;;;;;;18.15;4.95;;;13.00;99.90;;;;;;5023419;28;20017;-79
2021/04/12 04:15:35;;;;;;;8.82;5.93;;;13.00;99.90;;;;;;5015256;28;20045;-79
2021/04/12 04:18:24;;;;;;;18.67;6.07;;;13.10;99.90;;;;;;5014179;28;20108;-78
2021/04/12 04:20:49;;;;;;;20.27;6.22;;;13.10;99.90;;;;;;5019669;28;20109;-79
2021/04/12 04:23:53;;;;;;;9.38;5.40;;;13.10;99.90;;;;;;5004102;28;20118;-79
2021/04/12 04:26:54;;;;;;;13.73;5.85;;;13.10;99.90;;;;;;4996521;28;20027;-80
2021/04/12 04:29:41;;;;;;;13.98;8.18;;;13.10;99.90;;;;;;5007680;28;20034;-79
2021/04/12 04:32:30;;;;;;;15.18;5.65;;;13.10;99.90;;;;;;5011968;28;20036;-80
2021/04/12 04:35:04;;;;;;;25.85;5.38;;;13.20;99.90;;;;;;5030316;28;20036;-80
2021/04/12 04:37:52;;;;;;;20.80;6.15;;;13.10;99.90;;;;;;5022404;28;20104;-78
2021/04/12 04:40:42;;;;;;;20.80;6.10;;;13.10;99.90;;;;;;5019158;28;20029;-78
2021/04/12 04:43:14;;;;;;;13.60;6.43;;;13.00;99.90;;;;;;5004578;28;20112;-77
2021/04/12 04:45:47;;;;;;;13.10;6.67;;;13.00;99.90;;;;;;5010465;28;20120;-77
2021/04/12 04:48:38;;;;;;;12.15;4.85;;;12.90;99.90;;;;;;5003920;28;20277;-79
2021/04/12 04:51:04;;;;;;;13.05;6.55;;;12.90;99.90;;;;;;5006886;28;20025;-79
2021/04/12 04:53:48;;;;;;;12.43;5.10;;;12.90;99.90;;;;;;5009579;28;20483;-79
2021/04/12 04:56:39;;;;;;;20.83;6.53;;;12.80;99.90;;;;;;5017110;28;20044;-78
2021/04/12 04:59:16;;;;;;;9.77;4.88;;;12.80;99.90;;;;;;5021924;28;20053;-78
2021/04/12 05:02:26;;;;;;;13.82;7.05;;;12.70;99.90;;;;;;5008069;28;20500;-78
2021/04/12 05:05:13;;;;;;;9.63;5.50;;;12.70;99.90;;;;;;5000313;28;20056;-79
2021/04/12 05:08:00;;;;;;;12.40;5.38;;;12.70;99.90;;;;;;5023872;28;20041;-79
2021/04/12 05:10:32;;;;;;;12.55;4.88;;;12.80;99.90;;;;;;5021232;28;20045;-79
2021/04/12 05:13:21;;;;;;;14.00;5.82;;;12.80;99.90;;;;;;5022325;28;20022;-78
2021/04/12 05:16:03;;;;;;;5.32;4.65;;;12.80;99.90;;;;;;4974398;28;20045;-78
2021/04/12 05:18:38;;;;;;;16.08;5.45;;;12.80;99.90;;;;;;5010831;28;20025;-79
2021/04/12 05:21:31;;;;;;;10.90;6.10;;;12.80;99.90;;;;;;5015581;28;20025;-78
2021/04/12 05:24:12;;;;;;;11.48;5.40;;;12.70;99.90;;;;;;5016634;28;20022;-78
2021/04/12 05:26:52;;;;;;;15.00;5.05;;;12.70;99.90;;;;;;5008430;28;20022;-79
2021/04/12 05:29:42;;;;;;;8.63;5.15;;;12.70;99.90;;;;;;5013840;28;20030;-78
2021/04/12 05:32:38;;;;;;;8.73;5.95;;;12.60;99.90;;;;;;5024819;28;20017;-79
2021/04/12 05:35:21;;;;;;;17.33;6.85;;;12.60;99.90;;;;;;5012748;28;20034;-80
2021/04/12 05:38:05;;;;;;;22.63;8.02;;;12.60;99.90;;;;;;5010312;28;20384;-78
2021/04/12 05:40:47;;;;;;;16.02;7.28;;;12.70;99.90;;;;;;5010196;28;20076;-79
2021/04/12 05:44:01;;;;;;;18.55;7.13;;;12.80;99.90;;;;;;5010976;28;20033;-79
2021/04/12 05:46:45;;;;;;;14.07;7.03;;;12.70;99.90;;;;;;5006480;28;20030;-79
2021/04/12 05:49:48;;;;;;;13.57;7.63;;;12.70;99.90;;;;;;5002177;28;20022;-78
2021/04/12 05:52:13;;;;;;;17.90;7.20;;;12.70;99.90;;;;;;5021822;28;20076;-78
2021/04/12 05:55:24;;;;;;;11.60;6.78;;;12.70;99.90;;;;;;5011694;28;20029;-78
2021/04/12 05:58:14;;;;;;;18.30;7.15;;;12.70;99.90;;;;;;4944814;28;20150;-78
2021/04/12 06:00:42;;;;;;;19.75;7.05;;;12.80;99.90;;;;;;4997665;28;20030;-78
2021/04/12 06:03:36;;;;;;;13.45;5.57;;;12.80;99.90;;;;;;5011148;28;20032;-78
2021/04/12 06:06:20;;;;;;;13.50;7.20;;;12.90;99.90;;;;;;5015577;28;20049;-78
2021/04/12 06:09:07;;;;;;;15.45;6.40;;;12.90;99.90;;;;;;5019907;28;20141;-79
2021/04/12 06:12:04;;;;;;;17.75;6.70;;;12.90;99.90;;;;;;5005740;28;21770;-79
2021/04/12 06:14:36;;;;;;;15.50;6.97;;;13.00;99.90;;;;;;5011590;28;20037;-79
2021/04/12 06:17:20;;;;;;;;;;;13.00;99.90;;;;;;5010494;28;20815;-78
2021/04/12 06:20:07;;;;;;;9.90;4.78;;;13.00;99.90;;;;;;4993436;28;19956;-79
2021/04/12 06:23:09;;;;;;;8.10;4.78;;;13.00;99.90;;;;;;5012058;28;20026;-78
2021/04/12 06:25:41;;;;;;;12.20;5.00;;;12.90;99.90;;;;;;5011239;28;20037;-78
2021/04/12 06:28:52;;;;;;;11.13;5.22;;;12.90;99.90;;;;;;5008725;28;20056;-78
2021/04/12 06:31:49;;;;;;;10.43;5.90;;;13.00;99.90;;;;;;4989025;28;20074;-78
2021/04/12 06:34:54;;;;;;;12.25;4.97;;;13.00;99.90;;;;;;5016114;28;20072;-77
2021/04/12 06:37:57;;;;;;;15.65;5.07;;;13.00;99.90;;;;;;4926968;29;20437;-78
2021/04/12 06:41:00;;;;;;;6.55;4.45;;;13.00;99.90;;;;;;4915338;29;20040;-78
2021/04/12 06:43:56;;;;;;;8.10;3.95;;;12.90;99.90;;;;;;5013479;28;20114;-79
2021/04/12 06:46:51;;;;;;;5.40;3.72;;;13.00;99.90;;;;;;5015429;28;20025;-78
2021/04/12 06:49:58;;;;;;;10.65;4.40;;;13.00;99.90;;;;;;4982426;28;20495;-80
2021/04/12 06:52:47;;;;;;;10.88;3.97;;;12.90;99.90;;;;;;5004634;28;20033;-82
2021/04/12 06:55:19;;;;;;;4.28;3.28;;;12.90;99.90;;;;;;5007717;28;20018;-80
2021/04/12 06:58:26;;;;;;;5.88;3.55;;;12.90;99.90;;;;;;5018134;28;20091;-79
2021/04/12 07:01:20;;;;;;;5.10;3.70;;;12.90;99.90;;;;;;4985246;28;20030;-78
2021/04/12 07:04:10;;;;;;;5.82;3.83;;;12.90;99.90;;;;;;5016477;28;20080;-78
2021/04/12 07:06:57;;;;;;;5.10;3.63;;;12.90;99.90;;;;;;5017723;28;20037;-79
2021/04/12 07:10:00;;;;;;;6.72;4.95;;;12.90;99.90;;;;;;5023119;28;20060;-78
2021/04/12 07:12:59;;;;;;;12.63;4.70;;;12.90;99.90;;;;;;5019286;28;20018;-79
2021/04/12 07:15:40;;;;;;;5.50;3.47;;;12.90;99.90;;;;;;5008399;28;20026;-71
2021/04/12 07:18:36;;;;;;;5.22;3.60;;;12.80;99.90;;;;;;5020347;28;20033;-72
2021/04/12 07:21:22;;;;;;;8.32;4.32;;;12.80;99.90;;;;;;5012255;28;20041;-71
2021/04/12 07:23:51;;;;;;;6.10;3.72;;;12.90;99.90;;;;;;5020752;28;20533;-71
2021/04/12 07:26:35;;;;;;;8.25;3.85;;;12.90;99.90;;;;;;5010990;28;20073;-70
2021/04/12 07:29:27;;;;;;;12.13;5.35;;;12.90;99.90;;;;;;5017324;28;20025;-71
2021/04/12 07:32:15;;;;;;;8.38;4.57;;;12.90;99.90;;;;;;5017279;28;20030;-72
2021/04/12 07:34:59;;;;;;;14.40;4.50;;;12.90;99.90;;;;;;5011679;28;20088;-70
2021/04/12 07:37:51;;;;;;;11.32;4.10;;;12.90;99.90;;;;;;5000147;28;20033;-70
2021/04/12 07:40:45;;;;;;;12.23;3.80;;;12.90;99.90;;;;;;5021746;28;20068;-69
2021/04/12 07:43:49;;;;;;;7.97;3.80;;;12.90;99.90;;;;;;5019551;28;20381;-70
2021/04/12 07:46:26;;;;;;;5.00;3.15;;;12.70;99.90;;;;;;5007992;28;20105;-69
2021/04/12 07:49:00;;;;;;;8.35;3.88;;;12.60;99.90;;;;;;5016164;28;20025;-70
2021/04/12 07:51:55;;;;;;;8.18;3.78;;;12.70;99.90;;;;;;5006926;28;20030;-70
2021/04/12 07:54:51;;;;;;;4.32;2.38;;;12.70;99.90;;;;;;4992984;28;20142;-70
2021/04/12 07:57:54;;;;;;;3.10;2.80;;;12.60;99.90;;;;;;5008185;28;20076;-72
2021/04/12 08:00:41;;;;;;;3.75;3.00;;;12.70;99.90;;;;;;5005344;28;20080;-73
2021/04/12 08:03:25;;;;;;;7.65;2.72;;;12.70;99.90;;;;;;5012801;28;20555;-69
2021/04/12 08:06:10;;;;;;;4.82;3.30;;;12.70;99.90;;;;;;5028193;28;20029;-70
2021/04/12 08:09:09;;;;;;;6.57;3.67;;;12.60;99.90;;;;;;5006253;28;20036;-72
2021/04/12 08:12:06;;;;;;;10.02;3.45;;;12.50;99.90;;;;;;5011160;28;20048;-70
2021/04/12 08:14:51;;;;;;;5.57;3.13;;;12.50;99.90;;;;;;5007871;28;20101;-73
2021/04/12 08:18:11;;;;;;;7.65;3.95;;;12.40;99.90;;;;;;5014706;28;20419;-68
2021/04/12 08:20:43;;;;;;;3.78;3.10;;;12.40;99.90;;;;;;4952245;28;20058;-68
2021/04/12 08:23:08;;;;;;;4.82;3.58;;;12.50;99.90;;;;;;5025356;28;20096;-68
2021/04/12 08:26:11;;;;;;;6.82;3.60;;;12.50;99.90;;;;;;5007111;28;20041;-68
2021/04/12 08:28:55;;;;;;;6.65;3.92;;;12.60;99.90;;;;;;5008538;28;20023;-68
2021/04/12 08:31:55;;;;;;;5.35;3.47;;;12.60;99.90;;;;;;5027024;28;20033;-70
2021/04/12 08:34:55;;;;;;;8.38;3.60;;;12.50;99.90;;;;;;5021859;28;20112;-69
2021/04/12 08:37:36;;;;;;;3.95;3.60;;;12.50;99.90;;;;;;5023535;28;20030;-69
2021/04/12 08:40:23;;;;;;;7.68;3.40;;;12.50;99.90;;;;;;5020679;28;20029;-69
2021/04/12 08:42:58;;;;;;;5.57;4.70;;;12.50;99.90;;;;;;5011148;28;20418;-69
2021/04/12 08:46:04;;;;;;;5.60;3.72;;;12.50;99.90;;;;;;5025877;28;20079;-71
2021/04/12 08:48:44;;;;;;;5.20;3.25;;;12.50;99.90;;;;;;5010389;28;20017;-70
2021/04/12 08:51:15;;;;;;;8.50;3.63;;;12.50;99.90;;;;;;5022105;28;20025;-72
2021/04/12 08:54:17;;;;;;;4.38;3.30;;;12.50;99.90;;;;;;5009926;28;20030;-71
2021/04/12 08:57:12;;;;;;;5.33;2.63;;;12.60;99.90;;;;;;4994206;28;20030;-70
2021/04/12 09:00:23;;;;;;;4.68;3.42;;;12.70;99.90;;;;;;5014854;28;20026;-69
2021/04/12 09:03:03;;;;;;;9.80;2.80;;;12.70;99.90;;;;;;5018763;28;20068;-73
2021/04/12 09:05:43;;;;;;;3.15;2.85;;;12.80;99.90;;;;;;5017474;28;20479;-71
2021/04/12 09:08:14;;;;;;;6.70;3.25;;;12.70;99.90;;;;;;5014443;28;20025;-72
2021/04/12 09:10:57;;;;;;;3.70;2.72;;;12.80;99.90;;;;;;5019032;28;20386;-69
2021/04/12 09:13:44;;;;;;;5.40;2.33;;;12.70;99.90;;;;;;5016852;28;20065;-69
2021/04/12 09:16:25;;;;;;;4.05;3.00;;;12.70;99.90;;;;;;5029922;28;20112;-70
2021/04/12 09:19:18;;;;;;;3.85;2.25;;;12.60;99.90;;;;;;5020149;28;20056;-71
2021/04/12 09:21:59;;;;;;;7.28;2.92;;;12.60;99.90;;;;;;5024858;28;20033;-69
2021/04/12 09:24:24;;;;;;;5.40;2.60;;;12.70;99.90;;;;;;5020591;28;20368;-69
2021/04/12 09:27:18;;;;;;;6.93;3.25;;;12.70;99.90;;;;;;5010756;28;20029;-69
2021/04/12 09:29:46;;;;;;;5.55;3.25;;;12.80;99.90;;;;;;5024961;28;20045;-71
2021/04/12 09:32:46;;;;;;;4.78;4.13;;;12.90;99.90;;;;;;5024507;28;20116;-74
2021/04/12 09:35:30;;;;;;;5.15;3.70;;;12.90;99.90;;;;;;5020033;28;20072;-72
2021/04/12 09:38:44;;;;;;;3.83;2.35;;;12.90;99.90;;;;;;5015448;28;20567;-72
2021/04/12 09:41:24;;;;;;;4.22;2.70;;;13.00;99.90;;;;;;5017069;28;20049;-73
2021/04/12 09:44:24;;;;;;;5.57;2.25;;;13.10;99.90;;;;;;5003369;28;20034;-74
2021/04/12 09:47:08;;;;;;;4.75;3.17;;;13.00;99.90;;;;;;5010391;28;20057;-72
2021/04/12 09:50:11;;;;;;;5.57;2.90;;;13.00;99.90;;;;;;5026078;28;20048;-71
2021/04/12 09:52:41;;;;;;;5.15;3.63;;;13.10;99.90;;;;;;5000319;28;20052;-73
2021/04/12 09:55:51;;;;;;;4.90;2.30;;;13.10;99.90;;;;;;5016324;28;20640;-73
2021/04/12 09:58:45;;;;;;;2.33;1.95;;;13.00;99.90;;;;;;4993958;28;20127;-72
2021/04/12 10:01:36;;;;;;;1.92;1.65;;;13.00;99.90;;;;;;5006715;28;20030;-73
2021/04/12 10:04:23;;;;;;;3.08;1.65;;;13.00;99.90;;;;;;5008660;28;20030;-75
2021/04/12 10:07:24;;;;;;;2.40;1.83;;;13.10;99.90;;;;;;5013861;28;20030;-72
2021/04/12 10:10:01;;;;;;;2.05;1.42;;;13.00;99.90;;;;;;4947322;29;20031;-72
2021/04/12 10:12:42;;;;;;;7.40;1.48;;;13.00;99.90;;;;;;4996990;28;20392;-73
2021/04/12 10:15:37;;;;;;;1.98;1.83;;;13.00;99.90;;;;;;5025612;28;20205;-72
2021/04/12 10:18:34;;;;;;;2.40;2.00;;;13.10;99.90;;;;;;5027504;28;20406;-74
2021/04/12 10:21:27;;;;;;;4.03;2.08;;;13.20;99.90;;;;;;5023533;28;20030;-72
2021/04/12 10:24:07;;;;;;;3.17;1.48;;;13.20;99.90;;;;;;5012292;28;20029;-74
2021/04/12 10:26:46;;;;;;;4.93;1.73;;;13.20;99.90;;;;;;5003145;28;20032;-74
2021/04/12 10:29:32;;;;;;;2.50;2.30;;;13.20;99.90;;;;;;5022388;28;20048;-75
2021/04/12 10:32:14;;;;;;;6.03;2.03;;;13.30;99.90;;;;;;5033191;28;20018;-73
2021/04/12 10:34:58;;;;;;;2.17;1.63;;;13.30;99.90;;;;;;5021013;28;20054;-71
2021/04/12 10:37:52;;;;;;;1.77;1.60;;;13.40;99.90;;;;;;4997463;28;20030;-72
2021/04/12 10:40:38;;;;;;;2.88;1.33;;;13.40;99.90;;;;;;5013279;28;20239;-73
2021/04/12 10:43:13;;;;;;;4.15;2.17;;;13.40;99.90;;;;;;5023352;28;20359;-73
2021/04/12 10:45:50;;;;;;;2.45;2.17;;;13.40;99.90;;;;;;5004854;28;20026;-71
2021/04/12 10:48:42;;;;;;;2.58;2.35;;;13.40;99.90;;;;;;5004831;28;20134;-72
2021/04/12 10:51:32;;;;;;;4.70;2.08;;;13.40;99.90;;;;;;5005937;28;20022;-69
2021/04/12 10:54:32;;;;;;;9.25;1.65;;;13.50;99.90;;;;;;5006078;28;20030;-69
2021/04/12 10:57:01;;;;;;;3.22;2.10;;;13.50;99.90;;;;;;5007187;28;20022;-71
2021/04/12 10:59:50;;;;;;;2.70;1.75;;;13.50;99.90;;;;;;5008692;28;20029;-70
2021/04/12 11:02:54;;;;;;;4.70;2.22;;;13.40;99.90;;;;;;5018104;28;20022;-71
2021/04/12 11:05:28;;;;;;;2.92;1.55;;;13.40;99.90;;;;;;5012898;28;20030;-74
2021/04/12 11:08:02;;;;;;;4.18;2.03;;;13.30;99.90;;;;;;5020518;28;20037;-72
2021/04/12 11:10:38;;;;;;;1.70;1.60;;;13.40;99.90;;;;;;5019438;28;20025;-72
2021/04/12 11:13:09;;;;;;;1.83;1.52;;;13.40;99.90;;;;;;5024327;28;20480;-73
2021/04/12 11:16:07;;;;;;;2.38;1.90;;;13.30;99.90;;;;;;5018729;28;20546;-71
2021/04/12 11:18:56;;;;;;;3.00;1.63;;;13.20;99.90;;;;;;5006141;28;20520;-72
2021/04/12 11:21:31;;;;;;;2.08;1.83;;;13.30;99.90;;;;;;5023696;28;20037;-72
2021/04/12 11:24:28;;;;;;;2.60;2.17;;;13.20;99.90;;;;;;5029914;28;20090;-71
2021/04/12 11:27:21;;;;;;;5.72;2.05;;;13.20;99.90;;;;;;5014073;28;20029;-71
2021/04/12 11:30:07;;;;;;;2.67;2.45;;;13.40;99.90;;;;;;5016532;28;20110;-72
2021/04/12 11:32:47;;;;;;;2.40;2.03;;;13.50;99.90;;;;;;5015035;28;20034;-71
2021/04/12 11:35:24;;;;;;;4.95;1.90;;;13.40;99.90;;;;;;5020468;28;20029;-71
2021/04/12 11:37:56;;;;;;;6.65;2.08;;;13.30;99.90;;;;;;5023222;28;20025;-71
2021/04/12 11:40:34;;;;;;;4.50;2.30;;;13.20;99.90;;;;;;5023507;28;20030;-70
2021/04/12 11:43:11;;;;;;;2.08;1.90;;;13.20;99.90;;;;;;5021703;28;20029;-70
2021/04/12 11:45:47;;;;;;;2.45;1.58;;;13.20;99.90;;;;;;5022576;28;20056;-73
2021/04/12 11:48:29;;;;;;;4.32;1.52;;;13.40;99.90;;;;;;5030577;28;20036;-72
2021/04/12 11:50:55;;;;;;;4.18;2.40;;;13.30;99.90;;;;;;5021087;28;20441;-70
2021/04/12 11:53:27;;;;;;;4.00;1.92;;;13.30;99.90;;;;;;5016239;28;20018;-72
2021/04/12 11:56:11;;;;;;;4.43;1.55;;;13.30;99.90;;;;;;5019677;28;20038;-70
2021/04/12 11:58:50;;;;;;;3.33;2.28;;;13.40;99.90;;;;;;5013440;28;20044;-72
2021/04/12 12:01:21;;;;;;;3.38;2.33;;;13.40;99.90;;;;;;5017308;28;20400;-70
2021/04/12 12:04:13;;;;;;;2.72;2.22;;;13.40;99.90;;;;;;5017436;28;20048;-74
2021/04/12 12:07:00;;;;;;;5.50;2.78;;;13.50;99.90;;;;;;5014996;28;20030;-74
2021/04/12 12:09:28;;;;;;;2.40;2.20;;;13.60;99.90;;;;;;5007112;28;20036;-72
2021/04/12 12:12:19;;;;;;;3.17;2.55;;;13.60;99.90;;;;;;5026737;28;20029;-73
2021/04/12 12:15:04;;;;;;;2.90;2.50;;;13.60;99.90;;;;;;5008445;28;20045;-73
2021/04/12 12:17:46;;;;;;;3.70;2.70;;;13.60;99.90;;;;;;5018294;28;20034;-73
2021/04/12 12:20:28;;;;;;;4.10;2.30;;;13.70;99.90;;;;;;5008953;28;20022;-74
2021/04/12 12:23:10;;;;;;;5.68;2.90;;;13.70;99.90;;;;;;5011197;28;20025;-74
2021/04/12 12:25:47;;;;;;;6.53;2.97;;;13.60;99.90;;;;;;5022952;28;20120;-74
2021/04/12 12:28:28;;;;;;;5.95;2.88;;;13.60;99.90;;;;;;5022531;28;20119;-75
2021/04/12 12:31:10;;;;;;;3.47;2.80;;;13.50;99.90;;;;;;5022020;28;20033;-74
2021/04/12 12:33:55;;;;;;;4.70;3.15;;;13.40;99.90;;;;;;5024054;28;20480;-74
2021/04/12 12:36:24;;;;;;;3.78;3.42;;;13.40;99.90;;;;;;5004584;28;20033;-72
2021/04/12 12:39:07;;;;;;;7.35;3.17;;;13.40;99.90;;;;;;5017697;28;20036;-75
2021/04/12 12:41:41;;;;;;;7.15;3.10;;;13.30;99.90;;;;;;4991643;28;20542;-74
2021/04/12 12:44:10;;;;;;;7.60;3.88;;;13.20;99.90;;;;;;5019537;28;20038;-73
2021/04/12 12:46:39;;;;;;;4.03;3.42;;;13.20;99.90;;;;;;5016801;28;20080;-74
2021/04/12 12:49:29;;;;;;;5.65;5.07;;;13.30;99.90;;;;;;5009320;28;20030;-75
2021/04/12 12:52:12;;;;;;;5.50;4.88;;;13.30;99.90;;;;;;4997710;28;20046;-73
2021/04/12 12:54:43;;;;;;;9.85;6.93;;;13.40;99.90;;;;;;5010261;28;20030;-73
2021/04/12 12:57:30;;;;;;;5.47;3.60;;;13.30;99.90;;;;;;5010766;28;20036;-75
2021/04/12 13:00:33;;;;;;;9.25;5.03;;;13.30;99.90;;;;;;5005937;28;20021;-75
2021/04/12 13:02:59;;;;;;;8.75;4.88;;;13.30;99.90;;;;;;5014425;28;20030;-76
2021/04/12 13:05:35;;;;;;;6.13;5.63;;;13.30;99.90;;;;;;5021616;28;20080;-75
2021/04/12 13:08:12;;;;;;;9.80;5.95;;;13.30;99.90;;;;;;5011186;28;20018;-74
2021/04/12 13:10:40;;;;;;;7.78;5.68;;;13.30;99.90;;;;;;5008920;28;20025;-75
2021/04/12 13:13:30;;;;;;;7.80;5.07;;;13.30;99.90;;;;;;5007980;28;20027;-73
2021/04/12 13:16:09;;;;;;;5.82;5.07;;;13.30;99.90;;;;;;4997625;28;20037;-74
2021/04/12 13:18:37;;;;;;;7.65;5.43;;;13.40;99.90;;;;;;4994413;28;20030;-73
2021/04/12 13:21:13;;;;;;;7.30;6.60;;;13.40;99.90;;;;;;5011194;28;20026;-72
2021/04/12 13:23:45;;;;;;;5.50;4.55;;;13.50;99.90;;;;;;5005254;28;20034;-73
2021/04/12 13:26:34;;;;;;;8.05;6.15;;;13.50;99.90;;;;;;4991141;28;20034;-76
2021/04/12 13:29:16;;;;;;;10.55;6.10;;;13.40;99.90;;;;;;5010220;28;20030;-72
2021/04/12 13:31:42;;;;;;;;;;;13.50;99.90;;;;;;5010599;28;20093;-74
2021/04/12 13:34:24;;;;;;;7.95;5.47;;;13.50;99.90;;;;;;4998600;28;20012;-73
2021/04/12 13:36:57;;;;;;;10.70;6.25;;;13.60;99.90;;;;;;4991235;28;20093;-71
2021/04/12 13:39:35;;;;;;;8.07;5.70;;;13.60;99.90;;;;;;5010559;28;20029;-72
2021/04/12 13:42:02;;;;;;;7.15;6.43;;;13.60;99.90;;;;;;5021269;28;20018;-72
2021/04/12 13:44:28;;;;;;;7.47;6.47;;;13.70;99.90;;;;;;5010708;28;20034;-71
2021/04/12 13:47:15;;;;;;;12.10;7.80;;;13.80;99.90;;;;;;5010124;28;20512;-73
2021/04/12 13:49:45;;;;;;;9.02;6.82;;;13.80;99.90;;;;;;5010029;28;20090;-73
2021/04/12 13:52:31;;;;;;;10.75;8.10;;;13.80;99.90;;;;;;5010034;28;20097;-75
2021/04/12 13:55:08;;;;;;;11.65;6.72;;;13.90;99.90;;;;;;4993478;28;20026;-73
2021/04/12 13:57:42;;;;;;;13.50;7.38;;;13.90;99.90;;;;;;4990920;28;20105;-74
2021/04/12 14:00:17;;;;;;;11.20;7.90;;;14.00;99.90;;;;;;4990651;28;20030;-73
2021/04/12 14:02:52;;;;;;;11.48;7.80;;;14.10;99.90;;;;;;4990400;28;20040;-72
2021/04/12 14:05:30;;;;;;;19.55;7.50;;;14.10;99.90;;;;;;4990250;28;20026;-73
2021/04/12 14:08:22;;;;;;;12.70;6.95;;;14.10;99.90;;;;;;5003220;28;20025;-72
2021/04/12 14:10:58;;;;;;;13.82;8.10;;;13.90;99.90;;;;;;4991126;28;20662;-77
2021/04/12 14:13:30;;;;;;;14.90;8.57;;;13.90;99.90;;;;;;4990164;28;20034;-74
2021/04/12 14:16:07;;;;;;;7.90;6.85;;;13.90;99.90;;;;;;4973001;28;20030;-74
2021/04/12 14:18:44;;;;;;;12.43;6.63;;;14.00;99.90;;;;;;4991291;28;20050;-78